createdAt,value
2018-03-04T00:00:13.804Z,24.90
2018-03-04T00:02:41.461Z,28.10
2018-03-04T00:05:09.076Z,21.98
2018-03-04T00:07:37.428Z,30.83
2018-03-04T00:10:05.853Z,25.73
2018-03-04T00:12:33.472Z,28.23
2018-03-04T00:15:01.129Z,23.65
2018-03-04T00:17:28.745Z,29.90
2018-03-04T00:19:57.097Z,28.00
2018-03-04T00:22:36.608Z,21.60
2018-03-04T00:25:05.252Z,25.80
2018-03-04T00:27:32.864Z,28.15
2018-03-04T00:30:01.127Z,23.73
2018-03-04T00:32:29.557Z,31.50
2018-03-04T00:34:57.381Z,23.40
2018-03-04T00:37:24.997Z,30.73
2018-03-04T00:39:52.669Z,27.73
2018-03-04T00:42:20.509Z,35.67
2018-03-04T00:44:48.268Z,27.15
2018-03-04T00:47:15.884Z,22.03
2018-03-04T00:49:44.196Z,28.53
2018-03-04T00:52:12.567Z,26.90
2018-03-04T00:54:40.259Z,32.00
2018-03-04T00:57:08.525Z,26.60
2018-03-04T00:59:36.393Z,32.57
2018-03-04T01:02:04.055Z,27.57
2018-03-04T01:04:31.691Z,30.50
2018-03-04T01:06:59.348Z,26.40
2018-03-04T01:09:26.972Z,27.58
2018-03-04T01:11:54.628Z,24.00
2018-03-04T01:14:22.244Z,26.50
2018-03-04T01:16:49.992Z,27.57
2018-03-04T01:19:17.609Z,38.38
2018-03-04T01:21:45.233Z,32.10
2018-03-04T01:24:12.913Z,32.17
2018-03-04T01:26:41.336Z,23.73
2018-03-04T01:29:08.991Z,28.33
2018-03-04T01:31:36.605Z,24.23
2018-03-04T01:34:04.300Z,31.02
2018-03-04T01:36:31.921Z,24.60
2018-03-04T01:38:59.580Z,29.25
2018-03-04T01:41:27.969Z,34.93
2018-03-04T01:43:56.397Z,26.90
2018-03-04T01:46:24.017Z,35.20
2018-03-04T01:48:52.434Z,31.97
2018-03-04T01:51:20.071Z,31.35
2018-03-04T01:53:47.768Z,25.53
2018-03-04T01:56:15.470Z,31.12
2018-03-04T01:58:43.908Z,25.75
2018-03-04T02:01:11.757Z,35.87
2018-03-04T02:03:40.077Z,32.25
2018-03-04T02:06:07.736Z,42.75
2018-03-04T02:08:35.344Z,31.55
2018-03-04T02:11:03.568Z,21.87
2018-03-04T02:13:31.222Z,32.70
2018-03-04T02:15:58.840Z,34.57
2018-03-04T02:18:26.496Z,36.22
2018-03-04T02:20:54.307Z,32.67
2018-03-04T02:23:22.061Z,31.17
2018-03-04T02:25:50.427Z,33.63
2018-03-04T02:28:18.043Z,33.53
2018-03-04T02:30:46.364Z,40.50
2018-03-04T02:33:14.026Z,35.07
2018-03-04T02:35:41.644Z,40.80
2018-03-04T02:38:09.304Z,34.00
2018-03-04T02:40:36.920Z,34.80
2018-03-04T02:43:04.585Z,35.50
2018-03-04T02:45:32.886Z,30.63
2018-03-04T02:48:00.510Z,33.50
2018-03-04T02:50:28.165Z,36.42
2018-03-04T02:52:56.476Z,39.13
2018-03-04T02:55:24.129Z,34.37
2018-03-04T02:57:52.512Z,29.93
2018-03-04T03:00:20.934Z,31.20
2018-03-04T03:02:48.551Z,24.47
2018-03-04T03:05:16.210Z,33.00
2018-03-04T03:07:43.823Z,26.07
2018-03-04T03:10:11.826Z,31.97
2018-03-04T03:12:39.454Z,25.05
2018-03-04T03:15:07.104Z,41.73
2018-03-04T03:19:54.982Z,30.10
2018-03-04T03:22:22.611Z,32.83
2018-03-04T03:24:50.280Z,33.25
2018-03-04T03:27:17.901Z,33.20
2018-03-04T03:29:45.553Z,25.08
2018-03-04T03:32:13.210Z,29.53
2018-03-04T03:34:41.639Z,36.67
2018-03-04T03:37:09.294Z,41.43
2018-03-04T03:39:36.915Z,39.70
2018-03-04T03:42:04.532Z,32.93
2018-03-04T03:44:32.193Z,43.60
2018-03-04T03:46:59.809Z,33.80
2018-03-04T03:49:27.517Z,38.63
2018-03-04T03:51:55.370Z,32.97
2018-03-04T03:54:22.988Z,39.80
2018-03-04T03:56:50.656Z,34.33
2018-03-04T03:59:18.308Z,36.23
2018-03-04T04:01:46.022Z,29.10
2018-03-04T04:04:13.638Z,34.67
2018-03-04T04:06:41.288Z,40.23
2018-03-04T04:09:08.951Z,40.80
2018-03-04T04:11:36.616Z,38.50
2018-03-04T04:14:04.269Z,32.55
2018-03-04T04:16:31.925Z,32.53
2018-03-04T04:19:00.395Z,38.58
2018-03-04T04:21:29.276Z,30.45
2018-03-04T04:23:56.894Z,36.15
2018-03-04T04:26:24.552Z,35.63
2018-03-04T04:28:52.168Z,42.10
2018-03-04T04:31:19.825Z,35.55
2018-03-04T04:33:48.207Z,33.10
2018-03-04T04:36:16.629Z,33.90
2018-03-04T04:38:44.241Z,36.00
2018-03-04T04:41:11.896Z,38.30
2018-03-04T04:43:39.513Z,23.60
2018-03-04T04:46:07.169Z,39.20
2018-03-04T04:48:34.781Z,25.63
2018-03-04T04:51:03.201Z,32.10
2018-03-04T04:53:31.319Z,42.00
2018-03-04T04:55:58.988Z,43.73
2018-03-04T04:58:27.372Z,39.13
2018-03-04T05:00:56.473Z,31.37
2018-03-04T05:03:24.125Z,45.63
2018-03-04T05:05:52.740Z,33.22
2018-03-04T05:08:20.529Z,30.10
2018-03-04T05:10:48.184Z,20.90
2018-03-04T05:13:15.842Z,37.37
2018-03-04T05:15:43.498Z,37.40
2018-03-04T05:18:11.144Z,41.30
2018-03-04T05:20:38.821Z,37.80
2018-03-04T05:23:06.512Z,39.23
2018-03-04T05:25:34.125Z,43.93
2018-03-04T05:28:01.777Z,23.37
2018-03-04T05:30:29.389Z,44.37
2018-03-04T05:32:57.046Z,40.38
2018-03-04T05:35:24.653Z,41.73
2018-03-04T05:37:52.308Z,36.90
2018-03-04T05:40:19.932Z,30.90
2018-03-04T05:42:47.594Z,29.50
2018-03-04T05:45:15.524Z,33.97
2018-03-04T05:47:43.141Z,49.47
2018-03-04T05:50:10.804Z,29.25
2018-03-04T05:52:38.426Z,38.30
2018-03-04T05:55:06.088Z,40.20
2018-03-04T05:57:33.745Z,34.30
2018-03-04T06:00:01.420Z,20.25
2018-03-04T06:02:29.162Z,37.73
2018-03-04T06:04:56.821Z,48.78
2018-03-04T06:07:24.473Z,35.87
2018-03-04T06:09:52.149Z,39.75
2018-03-04T06:12:19.827Z,42.63
2018-03-04T06:14:47.455Z,27.00
2018-03-04T06:17:15.109Z,34.03
2018-03-04T06:19:42.728Z,27.13
2018-03-04T06:22:10.382Z,35.97
2018-03-04T06:24:38.761Z,41.83
2018-03-04T06:27:07.728Z,40.87
2018-03-04T06:29:37.092Z,29.12
2018-03-04T06:32:04.744Z,32.53
2018-03-04T06:34:32.360Z,39.28
2018-03-04T06:37:00.021Z,32.50
2018-03-04T06:39:28.401Z,39.20
2018-03-04T06:41:56.786Z,40.90
2018-03-04T06:44:25.905Z,46.78
2018-03-04T06:46:53.565Z,46.17
2018-03-04T06:49:21.221Z,43.42
2018-03-04T06:51:48.850Z,39.23
2018-03-04T06:54:17.280Z,41.37
2018-03-04T06:56:44.892Z,34.93
2018-03-04T06:59:13.558Z,36.33
2018-03-04T07:01:41.173Z,42.87
2018-03-04T07:04:08.824Z,44.40
2018-03-04T07:06:36.482Z,43.87
2018-03-04T07:09:04.110Z,41.83
2018-03-04T07:11:31.804Z,42.10
2018-03-04T07:13:59.467Z,37.08
2018-03-04T07:16:27.125Z,40.83
2018-03-04T07:18:54.785Z,42.62
2018-03-04T07:21:22.452Z,41.00
2018-03-04T07:23:50.064Z,36.10
2018-03-04T07:26:17.744Z,41.27
2018-03-04T07:28:46.180Z,43.40
2018-03-04T07:31:13.845Z,37.67
2018-03-04T07:33:42.202Z,42.17
2018-03-04T07:36:09.819Z,42.67
2018-03-04T07:38:37.557Z,45.73
2018-03-04T07:41:06.129Z,23.50
2018-03-04T07:43:33.784Z,40.50
2018-03-04T07:46:01.421Z,42.13
2018-03-04T07:48:29.073Z,44.73
2018-03-04T07:50:56.689Z,51.00
2018-03-04T07:53:24.348Z,38.53
2018-03-04T07:55:52.009Z,33.70
2018-03-04T07:58:19.669Z,39.92
2018-03-04T08:00:47.301Z,35.70
2018-03-04T08:03:14.961Z,34.63
2018-03-04T08:05:42.776Z,47.43
2018-03-04T08:08:10.686Z,44.60
2018-03-04T08:10:38.384Z,42.50
2018-03-04T08:13:06.770Z,41.30
2018-03-04T08:15:35.200Z,43.40
2018-03-04T08:18:02.815Z,44.63
2018-03-04T08:20:30.981Z,35.33
2018-03-04T08:22:59.370Z,37.23
2018-03-04T08:25:31.824Z,33.50
2018-03-04T08:28:11.284Z,45.07
2018-03-04T08:30:38.961Z,42.60
2018-03-04T08:33:06.573Z,50.70
2018-03-04T08:35:34.192Z,49.35
2018-03-04T08:38:01.915Z,49.67
2018-03-04T08:40:30.303Z,23.73
2018-03-04T08:42:58.696Z,44.90
2018-03-04T08:45:28.369Z,40.75
2018-03-04T08:47:56.391Z,51.00
2018-03-04T08:50:24.108Z,44.03
2018-03-04T08:52:52.824Z,37.97
2018-03-04T08:55:20.489Z,27.15
2018-03-04T08:57:48.136Z,51.63
2018-03-04T09:00:15.922Z,43.22
2018-03-04T09:02:43.530Z,53.90
2018-03-04T09:05:11.450Z,51.37
2018-03-04T09:07:41.352Z,46.78
2018-03-04T09:10:11.409Z,42.97
2018-03-04T09:12:40.530Z,45.53
2018-03-04T09:15:09.282Z,48.60
2018-03-04T09:17:38.849Z,59.50
2018-03-04T09:20:07.548Z,52.83
2018-03-04T09:22:35.763Z,47.73
2018-03-04T09:25:03.421Z,52.37
2018-03-04T09:27:32.577Z,47.27
2018-03-04T09:30:05.568Z,52.23
2018-03-04T09:32:38.758Z,43.30
2018-03-04T09:35:12.148Z,46.00
2018-03-04T09:37:40.119Z,44.53
2018-03-04T09:40:07.789Z,48.17
2018-03-04T09:42:35.402Z,44.83
2018-03-04T09:45:03.032Z,41.60
2018-03-04T09:47:31.456Z,46.50
2018-03-04T09:49:59.072Z,47.50
2018-03-04T09:52:27.465Z,47.77
2018-03-04T09:54:55.896Z,52.73
2018-03-04T09:57:23.516Z,49.65
2018-03-04T09:59:51.173Z,36.73
2018-03-04T10:02:19.052Z,56.03
2018-03-04T10:04:46.669Z,45.43
2018-03-04T10:07:15.085Z,47.37
2018-03-04T10:09:42.742Z,49.08
2018-03-04T10:12:10.587Z,41.93
2018-03-04T10:14:39.133Z,46.72
2018-03-04T10:17:06.753Z,48.87
2018-03-04T10:19:34.408Z,49.38
2018-03-04T10:22:02.025Z,58.40
2018-03-04T10:24:29.675Z,54.28
2018-03-04T10:26:57.320Z,35.93
2018-03-04T10:29:26.833Z,56.00
2018-03-04T10:31:54.532Z,50.40
2018-03-04T10:34:23.000Z,50.30
2018-03-04T10:36:50.620Z,51.35
2018-03-04T10:39:18.566Z,54.33
2018-03-04T10:41:46.189Z,54.37
2018-03-04T10:44:14.693Z,51.35
2018-03-04T10:46:42.373Z,39.23
2018-03-04T10:49:10.025Z,47.47
2018-03-04T10:51:37.679Z,56.33
2018-03-04T10:54:05.377Z,59.67
2018-03-04T10:56:33.026Z,59.13
2018-03-04T10:59:00.794Z,53.50
2018-03-04T11:01:28.605Z,56.63
2018-03-04T11:03:56.272Z,51.83
2018-03-04T11:06:24.844Z,49.53
2018-03-04T11:08:52.510Z,51.80
2018-03-04T11:11:20.193Z,48.33
2018-03-04T11:13:50.372Z,56.90
2018-03-04T11:16:18.041Z,53.47
2018-03-04T11:18:45.701Z,44.65
2018-03-04T11:21:13.325Z,55.07
2018-03-04T11:23:40.978Z,54.30
2018-03-04T11:26:08.635Z,54.47
2018-03-04T11:28:36.304Z,56.25
2018-03-04T11:31:04.135Z,51.83
2018-03-04T11:33:31.756Z,56.43
2018-03-04T11:35:59.379Z,58.20
2018-03-04T11:38:27.030Z,54.27
2018-03-04T11:40:54.669Z,55.07
2018-03-04T11:43:22.373Z,51.90
2018-03-04T11:45:49.964Z,50.43
2018-03-04T11:48:17.611Z,50.33
2018-03-04T11:50:45.230Z,54.23
2018-03-04T11:53:12.880Z,52.00
2018-03-04T11:55:40.534Z,51.55
2018-03-04T11:58:08.258Z,55.20
2018-03-04T12:00:35.889Z,57.40
2018-03-04T12:03:03.545Z,54.28
2018-03-04T12:05:31.749Z,49.70
2018-03-04T12:07:59.384Z,49.73
2018-03-04T12:10:27.035Z,55.38
2018-03-04T12:12:54.890Z,52.87
2018-03-04T12:15:22.504Z,55.03
2018-03-04T12:17:50.156Z,53.83
2018-03-04T12:20:18.276Z,54.50
2018-03-04T12:22:45.957Z,50.12
2018-03-04T12:25:13.644Z,55.22
2018-03-04T12:27:41.257Z,55.60
2018-03-04T12:30:08.911Z,61.00
2018-03-04T12:32:36.569Z,54.47
2018-03-04T12:35:04.221Z,50.88
2018-03-04T12:37:31.924Z,53.33
2018-03-04T12:40:00.300Z,56.07
2018-03-04T12:42:27.952Z,53.13
2018-03-04T12:44:55.608Z,50.30
2018-03-04T12:47:23.255Z,59.20
2018-03-04T12:49:51.169Z,65.30
2018-03-04T12:52:19.123Z,49.50
2018-03-04T12:54:47.572Z,60.33
2018-03-04T12:57:15.212Z,56.20
2018-03-04T12:59:45.072Z,53.47
2018-03-04T13:02:12.845Z,55.10
2018-03-04T13:04:41.129Z,52.97
2018-03-04T13:07:08.745Z,44.67
2018-03-04T13:09:36.364Z,59.95
2018-03-04T13:12:05.858Z,52.10
2018-03-04T13:14:33.436Z,54.33
2018-03-04T13:17:01.102Z,58.93
2018-03-04T13:19:28.716Z,56.60
2018-03-04T13:21:56.368Z,56.77
2018-03-04T13:24:23.985Z,81.70
2018-03-04T13:26:51.783Z,59.80
2018-03-04T13:29:19.394Z,49.78
2018-03-04T13:31:47.052Z,46.90
2018-03-04T13:34:14.766Z,51.13
2018-03-04T13:36:42.448Z,55.23
2018-03-04T13:39:10.707Z,56.10
2018-03-04T13:41:38.325Z,52.40
2018-03-04T13:44:05.978Z,55.53
2018-03-04T13:46:33.823Z,48.87
2018-03-04T13:49:02.241Z,61.57
2018-03-04T13:51:29.905Z,59.47
2018-03-04T13:53:57.525Z,50.67
2018-03-04T13:56:25.177Z,54.70
2018-03-04T13:58:52.801Z,55.12
2018-03-04T14:01:20.500Z,50.93
2018-03-04T14:03:54.627Z,57.42
2018-03-04T14:06:28.038Z,48.27
2018-03-04T14:08:55.976Z,58.13
2018-03-04T14:11:24.417Z,57.58
2018-03-04T14:13:52.073Z,62.33
2018-03-04T14:16:20.482Z,58.77
2018-03-04T14:18:48.473Z,58.10
2018-03-04T14:21:16.317Z,57.20
2018-03-04T14:23:44.092Z,58.65
2018-03-04T14:26:12.517Z,61.22
2018-03-04T14:28:40.145Z,60.95
2018-03-04T14:31:07.794Z,55.60
2018-03-04T14:33:35.421Z,61.00
2018-03-04T14:36:03.068Z,54.83
2018-03-04T14:38:30.953Z,59.17
2018-03-04T14:40:58.728Z,57.43
2018-03-04T14:43:26.333Z,55.53
2018-03-04T14:45:54.240Z,55.60
2018-03-04T14:48:22.149Z,57.03
2018-03-04T14:50:50.440Z,61.27
2018-03-04T14:53:18.540Z,63.93
2018-03-04T14:55:46.194Z,57.73
2018-03-04T14:58:13.821Z,56.40
2018-03-04T15:00:41.492Z,53.47
2018-03-04T15:03:09.128Z,55.38
2018-03-04T15:05:36.787Z,59.83
2018-03-04T15:08:04.712Z,58.08
2018-03-04T15:10:32.372Z,60.92
2018-03-04T15:13:00.327Z,51.43
2018-03-04T15:15:28.006Z,64.87
2018-03-04T15:17:55.639Z,55.10
2018-03-04T15:20:23.271Z,55.22
2018-03-04T15:22:51.697Z,54.53
2018-03-04T15:25:19.318Z,57.70
2018-03-04T15:27:47.435Z,52.40
2018-03-04T15:30:15.108Z,55.83
2018-03-04T15:32:42.782Z,57.20
2018-03-04T15:35:10.504Z,55.97
2018-03-04T15:37:38.146Z,59.53
2018-03-04T15:40:05.804Z,58.42
2018-03-04T15:42:33.416Z,48.07
2018-03-04T15:45:01.072Z,54.45
2018-03-04T15:47:28.685Z,58.90
2018-03-04T15:49:56.352Z,54.50
2018-03-04T15:52:23.992Z,61.30
2018-03-04T15:54:52.296Z,57.90
2018-03-04T15:57:19.918Z,55.03
2018-03-04T15:59:47.573Z,57.78
2018-03-04T16:02:15.228Z,57.10
2018-03-04T16:04:42.943Z,57.13
2018-03-04T16:07:10.589Z,56.23
2018-03-04T16:09:38.818Z,57.10
2018-03-04T16:12:06.703Z,57.40
2018-03-04T16:14:34.353Z,68.25
2018-03-04T16:17:01.967Z,57.10
2018-03-04T16:19:29.632Z,48.60
2018-03-04T16:21:57.502Z,62.10
2018-03-04T16:24:25.124Z,59.13
2018-03-04T16:26:53.025Z,58.10
2018-03-04T16:29:20.675Z,55.83
2018-03-04T16:31:48.289Z,57.83
2018-03-04T16:34:16.705Z,54.78
2018-03-04T16:36:44.320Z,58.60
2018-03-04T16:39:12.012Z,62.35
2018-03-04T16:41:39.664Z,56.33
2018-03-04T16:44:07.365Z,59.42
2018-03-04T16:46:35.125Z,54.88
2018-03-04T16:49:02.978Z,57.67
2018-03-04T16:51:30.685Z,53.73
2018-03-04T16:53:58.537Z,57.93
2018-03-04T16:56:26.182Z,63.43
2018-03-04T16:58:54.436Z,63.67
2018-03-04T17:01:22.045Z,57.03
2018-03-04T17:03:50.459Z,60.67
2018-03-04T17:06:18.077Z,57.10
2018-03-04T17:08:46.256Z,52.50
2018-03-04T17:11:14.777Z,54.38
2018-03-04T17:13:42.907Z,62.10
2018-03-04T17:16:11.397Z,53.37
2018-03-04T17:18:39.001Z,66.27
2018-03-04T17:21:06.709Z,56.50
2018-03-04T17:23:35.089Z,56.53
2018-03-04T17:26:02.756Z,57.42
2018-03-04T17:28:31.698Z,60.83
2018-03-04T17:30:59.553Z,63.13
2018-03-04T17:33:28.456Z,68.97
2018-03-04T17:35:56.103Z,63.13
2018-03-04T17:38:23.800Z,71.50
2018-03-04T17:40:52.226Z,62.70
2018-03-04T17:43:19.881Z,58.03
2018-03-04T17:45:47.544Z,67.57
2018-03-04T17:48:15.195Z,53.20
2018-03-04T17:50:42.861Z,64.60
2018-03-04T17:53:10.477Z,59.30
2018-03-04T17:55:38.325Z,64.43
2018-03-04T17:58:05.961Z,58.23
2018-03-04T18:00:33.612Z,63.85
2018-03-04T18:03:01.225Z,73.50
2018-03-04T18:05:29.653Z,53.83
2018-03-04T18:07:57.325Z,52.57
2018-03-04T18:10:25.176Z,51.07
2018-03-04T18:12:52.989Z,61.55
2018-03-04T18:15:23.389Z,58.67
2018-03-04T18:17:51.372Z,55.08
2018-03-04T18:20:19.050Z,64.37
2018-03-04T18:22:47.488Z,57.20
2018-03-04T18:25:16.349Z,58.53
2018-03-04T18:27:44.152Z,63.33
2018-03-04T18:30:12.624Z,58.30
2018-03-04T18:32:41.356Z,54.90
2018-03-04T18:35:09.034Z,51.55
2018-03-04T18:37:36.654Z,55.28
2018-03-04T18:40:04.309Z,64.07
2018-03-04T18:42:32.697Z,55.65
2018-03-04T18:45:01.169Z,64.62
2018-03-04T18:47:28.785Z,62.53
2018-03-04T18:49:56.432Z,59.53
2018-03-04T18:52:24.049Z,55.43
2018-03-04T18:54:52.667Z,61.83
2018-03-04T18:57:20.969Z,64.67
2018-03-04T18:59:48.844Z,62.33
2018-03-04T19:02:16.466Z,61.95
2018-03-04T19:04:44.286Z,67.53
2018-03-04T19:07:11.942Z,63.17
2018-03-04T19:09:40.206Z,62.93
2018-03-04T19:12:07.870Z,63.85
2018-03-04T19:14:35.523Z,59.80
2018-03-04T19:17:03.184Z,59.37
2018-03-04T19:19:30.856Z,61.50
2018-03-04T19:21:58.710Z,68.70
2018-03-04T19:24:27.346Z,57.43
2018-03-04T19:26:55.716Z,57.37
2018-03-04T19:29:24.899Z,61.47
2018-03-04T19:31:52.792Z,64.35
2018-03-04T19:34:20.473Z,60.87
2018-03-04T19:36:48.117Z,71.30
2018-03-04T19:39:15.979Z,59.80
2018-03-04T19:41:44.324Z,61.80
2018-03-04T19:44:12.130Z,66.63
2018-03-04T19:46:40.028Z,57.97
2018-03-04T19:49:07.678Z,57.77
2018-03-04T19:51:35.782Z,61.20
2018-03-04T19:54:03.842Z,62.43
2018-03-04T19:56:32.014Z,62.67
2018-03-04T19:58:59.730Z,60.77
2018-03-04T20:01:27.433Z,64.33
2018-03-04T20:03:55.045Z,63.78
2018-03-04T20:06:22.960Z,61.70
2018-03-04T20:08:50.573Z,60.93
2018-03-04T20:11:18.217Z,53.90
2018-03-04T20:13:47.137Z,61.77
2018-03-04T20:16:15.234Z,58.85
2018-03-04T20:18:43.003Z,62.05
2018-03-04T20:21:10.648Z,57.63
2018-03-04T20:23:38.309Z,61.00
2018-03-04T20:26:06.074Z,58.30
2018-03-04T20:28:35.140Z,62.00
2018-03-04T20:31:02.757Z,60.87
2018-03-04T20:33:30.405Z,57.73
2018-03-04T20:35:58.248Z,55.93
2018-03-04T20:38:26.114Z,58.65
2018-03-04T20:40:54.849Z,56.40
2018-03-04T20:43:22.497Z,60.60
2018-03-04T20:45:50.114Z,62.00
2018-03-04T20:48:17.810Z,65.68
2018-03-04T20:50:45.626Z,63.05
2018-03-04T20:53:13.604Z,58.92
2018-03-04T20:55:41.285Z,64.43
2018-03-04T20:58:08.972Z,53.17
2018-03-04T21:00:36.595Z,65.47
2018-03-04T21:03:04.848Z,63.07
2018-03-04T21:05:32.736Z,64.37
2018-03-04T21:08:00.820Z,52.22
2018-03-04T21:10:28.656Z,61.25
2018-03-04T21:12:56.309Z,77.63
2018-03-04T21:15:24.005Z,58.58
2018-03-04T21:17:51.804Z,53.35
2018-03-04T21:20:20.485Z,51.50
2018-03-04T21:22:49.229Z,57.03
2018-03-04T21:25:16.881Z,55.80
2018-03-04T21:27:44.721Z,59.93
2018-03-04T21:30:12.939Z,65.83
2018-03-04T21:32:40.598Z,50.17
2018-03-04T21:35:09.589Z,62.95
2018-03-04T21:37:37.207Z,53.67
2018-03-04T21:40:04.863Z,55.20
2018-03-04T21:42:32.482Z,43.22
2018-03-04T21:45:00.134Z,57.60
2018-03-04T21:47:27.750Z,75.62
2018-03-04T21:49:55.395Z,67.10
2018-03-04T21:52:23.664Z,57.85
2018-03-04T21:54:51.370Z,55.43
2018-03-04T21:57:19.029Z,62.43
2018-03-04T21:59:46.677Z,59.63
2018-03-04T22:02:14.303Z,61.60
2018-03-04T22:04:43.298Z,56.63
2018-03-04T22:07:11.736Z,52.35
2018-03-04T22:09:39.348Z,62.97
2018-03-04T22:12:07.161Z,61.73
2018-03-04T22:14:34.805Z,49.63
2018-03-04T22:17:03.813Z,49.83
2018-03-04T22:19:31.478Z,57.45
2018-03-04T22:21:59.096Z,61.53
2018-03-04T22:24:26.758Z,63.08
2018-03-04T22:26:54.414Z,64.93
2018-03-04T22:29:22.048Z,55.17
2018-03-04T22:31:49.976Z,49.95
2018-03-04T22:34:17.621Z,56.43
2018-03-04T22:36:45.237Z,58.23
2018-03-04T22:39:13.654Z,63.53
2018-03-04T22:41:41.432Z,60.23
2018-03-04T22:44:09.431Z,61.30
2018-03-04T22:46:37.816Z,59.67
2018-03-04T22:49:06.246Z,63.20
2018-03-04T22:51:34.019Z,54.60
2018-03-04T22:54:01.697Z,52.97
2018-03-04T22:56:29.316Z,52.33
2018-03-04T22:58:57.159Z,60.97
2018-03-04T23:01:24.992Z,65.65
2018-03-04T23:03:52.645Z,53.30
2018-03-04T23:06:20.275Z,55.75
2018-03-04T23:08:48.745Z,58.05
2018-03-04T23:11:16.361Z,55.15
2018-03-04T23:13:44.780Z,58.33
2018-03-04T23:16:12.564Z,56.30
2018-03-04T23:18:40.184Z,54.10
2018-03-04T23:21:07.808Z,58.13
2018-03-04T23:23:35.467Z,55.43
2018-03-04T23:26:03.304Z,55.67
2018-03-04T23:28:31.388Z,56.93
2018-03-04T23:30:59.034Z,55.63
2018-03-04T23:33:26.690Z,58.15
2018-03-04T23:35:54.333Z,68.00
2018-03-04T23:38:22.119Z,53.43
2018-03-04T23:40:49.783Z,53.57
2018-03-04T23:43:17.649Z,36.70
2018-03-04T23:45:45.299Z,56.20
2018-03-04T23:48:12.953Z,57.90
2018-03-04T23:50:40.627Z,48.93
2018-03-04T23:53:08.293Z,53.07
2018-03-04T23:55:35.946Z,55.93
2018-03-04T23:58:03.597Z,50.87
